Time;durP1;ratioP1;P1;durP2;ratioP2;P2;SDS_P1;SDS_P2;PMS_P1;PMS_P2;Temp;Humidity;BMP_temperature;BMP_pressure;BME280_temperature;BME280_humidity;BME280_pressure;Samples;Min_cycle;Max_cycle;Signal;HPM_P1;HPM_P2
2022/01/25 00:28:38;;;;;;;3.17;2.60;;;;;;;-1.85;99.53;100787.03;5031818;28;20044;-86
2022/01/25 00:31:13;;;;;;;1.60;1.48;;;;;;;-1.87;99.31;100789.09;5031306;28;20424;-87
2022/01/25 00:33:51;;;;;;;2.22;1.90;;;;;;;-1.86;99.52;100795.31;5030946;28;20072;-87
2022/01/25 00:36:18;;;;;;;2.88;2.15;;;;;;;-1.82;99.84;100800.09;5032446;28;20042;-87
2022/01/25 00:38:44;;;;;;;3.17;2.17;;;;;;;-1.78;99.58;100805.91;5031291;28;20091;-85
2022/01/25 00:41:10;;;;;;;2.78;2.15;;;;;;;-1.74;99.40;100796.41;5031855;28;20107;-86
2022/01/25 00:43:36;;;;;;;1.88;1.65;;;;;;;-1.74;99.94;100799.09;5030637;28;20056;-87
2022/01/25 00:46:06;;;;;;;2.03;1.63;;;;;;;-1.71;99.68;100796.03;5032460;28;20123;-85
2022/01/25 00:56:20;;;;;;;4.60;1.87;;;;;;;-1.66;99.69;100795.44;5024185;28;20039;-85
2022/01/25 00:58:45;;;;;;;2.20;1.63;;;;;;;-1.65;99.78;100784.47;5028156;28;20034;-85
2022/01/25 01:01:11;;;;;;;2.58;1.80;;;;;;;-1.61;99.62;100782.22;5026715;28;20616;-85
2022/01/25 01:03:37;;;;;;;2.83;1.73;;;;;;;-1.59;99.62;100780.97;5026816;28;20034;-85
2022/01/25 01:06:05;;;;;;;1.88;1.35;;;;;;;-1.58;99.87;100774.56;5027891;28;20037;-85
2022/01/25 01:08:31;;;;;;;2.97;1.80;;;;;;;-1.56;99.69;100775.22;5023150;28;20041;-85
2022/01/25 01:10:58;;;;;;;2.42;1.60;;;;;;;-1.57;99.97;100776.22;5027555;28;20123;-85
2022/01/25 01:30:56;;;;;;;2.28;1.67;;;;;;;-1.41;100.00;100785.00;5027211;28;20120;-84
2022/01/25 01:45:55;;;;;;;2.60;1.80;;;;;;;-1.32;100.00;100778.44;5027679;28;20050;-84
2022/01/25 01:48:33;;;;;;;1.52;1.30;;;;;;;-1.29;100.00;100781.56;5027265;28;20048;-84
2022/01/25 01:51:15;;;;;;;2.28;1.40;;;;;;;-1.27;100.00;100776.81;5027309;28;20570;-84
2022/01/25 01:53:41;;;;;;;1.63;1.50;;;;;;;-1.27;100.00;100763.34;5025126;28;20038;-84
2022/01/25 01:56:07;;;;;;;2.38;1.52;;;;;;;-1.25;100.00;100776.59;5026046;28;20034;-84
2022/01/25 01:58:35;;;;;;;1.73;1.63;;;;;;;-1.24;100.00;100768.31;5018461;28;20040;-84
2022/01/25 02:01:00;;;;;;;1.83;1.40;;;;;;;-1.21;100.00;100775.19;5050188;28;20418;-84
2022/01/25 02:03:26;;;;;;;1.67;1.55;;;;;;;-1.18;100.00;100768.56;5027076;28;20036;-83
2022/01/25 02:05:52;;;;;;;2.60;1.27;;;;;;;-1.15;100.00;100766.28;5026957;28;20041;-83
2022/01/25 02:08:18;;;;;;;1.35;1.13;;;;;;;-1.13;100.00;100766.94;5026371;28;20048;-83
2022/01/25 02:10:43;;;;;;;2.53;1.60;;;;;;;-1.10;100.00;100766.50;5025717;28;20030;-84
2022/01/25 02:13:10;;;;;;;3.38;1.65;;;;;;;-1.09;100.00;100776.25;5026340;28;20033;-83
2022/01/25 02:15:37;;;;;;;3.42;1.80;;;;;;;-1.08;100.00;100761.75;5036840;28;20540;-84
2022/01/25 02:23:22;;;;;;;1.60;1.40;;;;;;;-1.02;100.00;100750.19;5011878;28;20048;-85
2022/01/25 02:25:50;;;;;;;1.88;1.40;;;;;;;-1.01;100.00;100757.25;5026654;28;20115;-86
2022/01/25 02:28:17;;;;;;;1.95;1.80;;;;;;;-1.00;100.00;100756.22;5025110;28;20503;-86
2022/01/25 02:30:44;;;;;;;2.40;1.75;;;;;;;-0.98;100.00;100759.53;5026746;28;20053;-85
2022/01/25 02:33:09;;;;;;;3.00;2.00;;;;;;;-0.96;100.00;100753.94;5026276;28;20037;-85
2022/01/25 02:35:36;;;;;;;3.65;1.67;;;;;;;-0.93;100.00;100751.66;5027115;28;20084;-85
2022/01/25 02:38:02;;;;;;;2.88;1.90;;;;;;;-0.93;100.00;100748.97;5027932;28;20037;-86
2022/01/25 02:40:27;;;;;;;2.47;1.92;;;;;;;-0.93;100.00;100748.97;5029346;28;20048;-86
2022/01/25 02:42:53;;;;;;;2.10;1.90;;;;;;;-0.89;100.00;100748.53;5026539;28;20057;-85
2022/01/25 02:45:19;;;;;;;2.58;2.33;;;;;;;-0.88;100.00;100744.81;5026031;28;20045;-85
2022/01/25 02:50:37;;;;;;;3.25;2.08;;;;;;;-0.84;100.00;100735.31;5002775;28;20148;-85
2022/01/25 02:53:02;;;;;;;3.33;2.17;;;;;;;-0.82;100.00;100739.47;5026626;28;20053;-84
2022/01/25 02:55:28;;;;;;;2.80;2.40;;;;;;;-0.80;100.00;100736.56;5026947;28;20132;-86
2022/01/25 02:57:53;;;;;;;2.53;2.10;;;;;;;-0.75;100.00;100740.28;5031417;28;20812;-86
2022/01/25 03:00:19;;;;;;;2.67;2.20;;;;;;;-0.74;100.00;100728.47;5026627;28;20034;-86
2022/01/25 03:02:45;;;;;;;3.15;2.25;;;;;;;-0.73;100.00;100727.44;5026608;28;20045;-86
2022/01/25 03:05:10;;;;;;;3.20;2.58;;;;;;;-0.71;100.00;100727.25;5027497;28;20037;-86
2022/01/25 03:07:39;;;;;;;2.50;2.28;;;;;;;-0.72;100.00;100722.88;5038828;28;20050;-85
2022/01/25 03:10:05;;;;;;;;;;;;;;;-0.71;100.00;100719.97;5029173;28;20041;-86
2022/01/25 03:12:39;;;;;;;4.20;2.72;;;;;;;-0.69;100.00;100727.88;5012158;28;19921;-84
2022/01/25 03:15:25;;;;;;;3.40;3.10;;;;;;;-0.70;100.00;100729.72;5030028;28;20491;-84
2022/01/25 03:18:05;;;;;;;4.82;2.83;;;;;;;-0.70;100.00;100729.72;5030574;28;20099;-84
2022/01/25 03:24:54;;;;;;;3.15;2.42;;;;;;;-146.47;100.00;67696.44;5032965;28;20038;-84
2022/01/25 03:28:19;;;;;;;5.68;2.60;;;;;;;-146.47;100.00;67696.44;5032342;28;20522;-84
2022/01/25 03:31:44;;;;;;;3.80;3.13;;;;;;;-146.47;100.00;67696.44;5033450;28;20037;-85
2022/01/25 03:35:08;;;;;;;4.10;2.78;;;;;;;-146.47;100.00;67696.44;5033395;28;20037;-85
2022/01/25 03:38:04;;;;;;;4.65;2.88;;;;;;;-0.70;100.00;86292.78;5033447;28;20049;-85
2022/01/25 03:41:05;;;;;;;3.90;2.70;;;;;;;-0.70;100.00;67696.44;5033126;28;20080;-85
2022/01/25 03:43:37;;;;;;;6.50;3.08;;;;;;;-0.70;100.00;100729.72;5033468;28;20056;-85
2022/01/25 03:46:11;;;;;;;5.10;3.22;;;;;;;-0.40;99.92;100705.91;5039328;28;20044;-84
2022/01/25 03:51:21;;;;;;;6.35;2.50;;;;;;;-0.49;100.00;100704.47;5032154;28;20578;-83
2022/01/25 03:53:46;;;;;;;3.58;2.30;;;;;;;-0.49;100.00;100707.16;5015044;28;20187;-83
2022/01/25 03:56:38;;;;;;;4.25;2.25;;;;;;;-0.51;100.00;100697.63;5059659;28;20652;-83
2022/01/25 03:59:06;;;;;;;4.30;2.63;;;;;;;-0.51;100.00;100697.63;5045883;28;20356;-82
2022/01/25 04:01:32;;;;;;;3.78;2.38;;;;;;;-0.50;100.00;100694.72;5052196;28;20589;-83
2022/01/25 04:04:05;;;;;;;2.67;2.05;;;;;;;-0.47;100.00;100697.00;5052586;28;20044;-83
2022/01/25 04:06:33;;;;;;;3.58;2.65;;;;;;;-0.47;100.00;100694.31;5040033;28;20048;-83
2022/01/25 04:09:00;;;;;;;3.88;2.45;;;;;;;-0.44;100.00;100690.38;5032017;28;20041;-83
2022/01/25 04:11:26;;;;;;;4.20;2.70;;;;;;;-0.45;100.00;100692.22;5031894;28;20041;-83
2022/01/25 04:13:55;;;;;;;3.47;1.98;;;;;;;-0.46;100.00;100701.34;5031406;28;20045;-87
2022/01/25 04:16:27;;;;;;;3.00;1.98;;;;;;;-0.47;100.00;100699.69;5031130;28;20041;-82
2022/01/25 04:26:58;;;;;;;4.05;1.98;;;;;;;-0.46;100.00;100701.34;5032466;28;20037;-84
2022/01/25 04:29:24;;;;;;;3.00;1.70;;;;;;;-0.45;100.00;100700.31;5032989;28;20037;-86
2022/01/25 04:31:50;;;;;;;5.22;2.38;;;;;;;-0.45;100.00;100696.78;5032717;28;20045;-86
2022/01/25 04:48:52;;;;;;;1.98;1.77;;;;;;;-0.46;100.00;100689.75;5031731;28;20044;-84
2022/01/25 04:51:09;;;;;;;4.35;2.47;;;;;;;-0.48;100.00;100692.66;5031522;28;20041;-87
2022/01/25 04:56:25;;;;;;;2.08;1.58;;;;;;;-0.50;100.00;100683.94;5052216;28;20047;-85
2022/01/25 04:59:02;;;;;;;1.63;1.50;;;;;;;-0.49;100.00;100688.31;5012054;28;20052;-85
2022/01/25 05:01:28;;;;;;;2.17;1.65;;;;;;;-0.47;100.00;100672.75;5012126;28;20129;-85
2022/01/25 05:04:03;;;;;;;3.85;1.75;;;;;;;-0.45;100.00;100676.06;5019983;28;20240;-84
2022/01/25 05:06:30;;;;;;;2.15;1.60;;;;;;;-0.45;100.00;100681.44;5034083;28;20042;-85
2022/01/25 05:09:05;;;;;;;2.63;1.98;;;;;;;-0.45;100.00;100670.66;5026162;28;20057;-85
2022/01/25 05:11:34;;;;;;;2.65;1.88;;;;;;;-0.45;100.00;100694.09;5041401;28;20522;-84
2022/01/25 05:16:47;;;;;;;4.63;1.90;;;;;;;-0.45;100.00;100688.72;5031104;28;20499;-85
2022/01/25 05:24:36;;;;;;;3.83;2.05;;;;;;;-0.44;100.00;100684.97;5031386;28;19992;-85
2022/01/25 05:27:04;;;;;;;2.60;1.70;;;;;;;-0.44;100.00;100688.50;5030583;28;20037;-86
2022/01/25 05:29:29;;;;;;;8.13;2.00;;;;;;;-0.44;100.00;100693.06;5031318;28;20045;-86
2022/01/25 05:31:56;;;;;;;3.10;2.03;;;;;;;-0.45;100.00;100697.63;5031615;28;20103;-86
2022/01/25 05:34:21;;;;;;;3.67;2.05;;;;;;;-0.44;100.00;100698.44;5029657;28;20137;-85
2022/01/25 05:36:47;;;;;;;3.85;1.80;;;;;;;-0.44;100.00;100693.88;5029766;28;20132;-86
2022/01/25 05:39:18;;;;;;;3.42;2.15;;;;;;;-0.43;100.00;100697.41;5030238;28;20417;-85
2022/01/25 05:41:46;;;;;;;3.05;1.92;;;;;;;-0.45;100.00;100696.78;5030135;28;20107;-84
2022/01/25 05:47:26;;;;;;;3.97;2.10;;;;;;;-0.44;100.00;100693.88;5031077;28;20041;-84
2022/01/25 05:49:30;;;;;;;2.72;1.75;;;;;;;-0.44;100.00;100701.97;5026871;28;20463;-84
2022/01/25 05:51:56;;;;;;;4.18;2.03;;;;;;;-0.43;100.00;100686.63;5013168;28;20033;-84
2022/01/25 05:54:22;;;;;;;3.63;2.00;;;;;;;-0.45;100.00;100692.22;5032141;28;20099;-83
2022/01/25 05:56:47;;;;;;;4.70;2.28;;;;;;;-0.43;100.00;100692.03;5030633;28;20578;-83
2022/01/25 05:59:13;;;;;;;3.05;2.00;;;;;;;-0.44;100.00;100688.50;5030826;28;20077;-84
2022/01/25 06:01:38;;;;;;;3.88;2.47;;;;;;;-0.45;100.00;100689.53;5031655;28;20118;-84
2022/01/25 06:04:06;;;;;;;5.43;2.15;;;;;;;-0.45;100.00;100692.22;5030708;28;20538;-85
2022/01/25 06:06:32;;;;;;;4.13;2.13;;;;;;;-0.46;100.00;100697.84;5030864;28;20077;-84
2022/01/25 06:08:59;;;;;;;2.75;2.05;;;;;;;-0.48;100.00;100700.75;5030857;28;20073;-84
2022/01/25 06:11:25;;;;;;;3.78;2.20;;;;;;;-0.50;100.00;100693.91;5030660;28;20042;-84
2022/01/25 06:13:52;;;;;;;4.80;2.38;;;;;;;-0.53;100.00;100697.81;5029651;28;20033;-83
2022/01/25 06:16:18;;;;;;;3.75;2.30;;;;;;;-0.54;100.00;100693.47;5030891;28;20096;-78
2022/01/25 06:18:44;;;;;;;7.13;3.42;;;;;;;-0.58;100.00;100697.63;5029913;28;20064;-83
2022/01/25 06:21:09;;;;;;;11.38;4.95;;;;;;;-0.60;100.00;100688.91;5030281;28;20048;-82
2022/01/25 06:23:35;;;;;;;4.72;1.80;;;;;;;-0.62;100.00;100689.13;5030258;28;20045;-82
2022/01/25 06:26:01;;;;;;;4.18;2.60;;;;;;;-0.64;100.00;100679.59;5012493;28;20107;-84
2022/01/25 06:28:26;;;;;;;4.97;2.58;;;;;;;-0.65;100.00;100681.47;5035095;28;20069;-82
2022/01/25 06:30:52;;;;;;;5.82;3.00;;;;;;;-0.65;100.00;100686.03;5033306;28;20060;-81
2022/01/25 06:33:18;;;;;;;6.65;3.03;;;;;;;-0.66;100.00;100681.66;5030421;28;20038;-83
2022/01/25 06:35:45;;;;;;;5.20;2.80;;;;;;;-0.68;100.00;100678.34;5019986;28;20042;-81
2022/01/25 06:38:12;;;;;;;6.15;2.80;;;;;;;-0.69;100.00;100671.31;5021372;28;20037;-80
2022/01/25 06:40:38;;;;;;;4.95;2.90;;;;;;;-0.70;100.00;100654.28;5015664;28;20037;-80
2022/01/25 06:43:03;;;;;;;4.53;2.90;;;;;;;-0.70;100.00;100667.75;5035916;28;20047;-80
2022/01/25 06:45:29;;;;;;;4.10;2.47;;;;;;;-0.72;100.00;100656.34;5036005;28;20076;-79
2022/01/25 06:47:55;;;;;;;5.03;3.03;;;;;;;-0.72;100.00;100664.44;5032279;28;20064;-79
2022/01/25 06:50:23;;;;;;;6.28;2.90;;;;;;;-0.72;100.00;100658.22;5033183;28;20444;-83
2022/01/25 06:52:50;;;;;;;7.30;2.78;;;;;;;-0.72;100.00;100658.22;5032945;28;20076;-81
2022/01/25 06:55:18;;;;;;;4.97;2.65;;;;;;;-0.73;100.00;100654.69;5034149;28;20045;-79
2022/01/25 06:57:44;;;;;;;4.57;2.60;;;;;;;-0.70;100.00;100658.84;5034076;28;20060;-81
2022/01/25 07:00:13;;;;;;;6.03;3.05;;;;;;;-0.71;100.00;100660.69;5033193;28;20037;-77
2022/01/25 07:02:39;;;;;;;6.95;3.60;;;;;;;-0.71;100.00;100660.69;5033912;28;20120;-78
2022/01/25 07:05:05;;;;;;;5.45;2.80;;;;;;;-0.71;100.00;100660.69;5033515;28;20041;-79
2022/01/25 07:07:31;;;;;;;5.82;2.90;;;;;;;-0.72;100.00;100658.22;5032688;28;20038;-79
2022/01/25 07:09:57;;;;;;;4.40;3.22;;;;;;;-0.71;100.00;100666.09;5032152;28;20037;-80
2022/01/25 07:12:23;;;;;;;3.78;2.70;;;;;;;-0.72;100.00;100669.00;5036810;28;20041;-82
2022/01/25 07:14:49;;;;;;;2.58;1.48;;;;;;;-0.72;100.00;100675.22;5043569;28;20079;-85
2022/01/25 07:17:14;;;;;;;6.00;2.60;;;;;;;-0.72;100.00;100669.81;5034056;28;20136;-83
2022/01/25 07:19:40;;;;;;;4.68;2.45;;;;;;;-0.71;100.00;100671.47;5039054;28;20136;-84
2022/01/25 07:22:06;;;;;;;4.00;2.50;;;;;;;-0.70;100.00;100677.69;5032576;28;20052;-82
2022/01/25 07:24:32;;;;;;;4.28;2.78;;;;;;;-0.71;100.00;100663.41;5033479;28;20034;-82
2022/01/25 07:26:57;;;;;;;3.35;2.45;;;;;;;-0.71;100.00;100667.97;5033009;28;20381;-83
2022/01/25 07:29:23;;;;;;;3.30;2.58;;;;;;;-0.70;100.00;100651.59;5049856;28;20052;-80
2022/01/25 07:31:49;;;;;;;7.07;3.08;;;;;;;-0.69;100.00;100644.34;5037019;28;20450;-84
2022/01/25 07:34:15;;;;;;;5.50;2.70;;;;;;;-0.67;100.00;100650.38;5053325;28;20049;-82
2022/01/25 07:36:42;;;;;;;4.15;2.70;;;;;;;-0.65;100.00;100648.28;5033581;28;20132;-83
2022/01/25 07:39:09;;;;;;;4.35;2.47;;;;;;;-0.64;100.00;100649.94;5034528;28;20029;-81
2022/01/25 07:41:36;;;;;;;3.47;2.33;;;;;;;-0.62;100.00;100642.47;5032526;28;20459;-82
2022/01/25 07:44:02;;;;;;;2.63;1.80;;;;;;;-0.60;100.00;100645.78;5029441;28;20038;-80
2022/01/25 07:46:29;;;;;;;5.75;2.35;;;;;;;-0.61;100.00;100647.66;5042750;28;20492;-80
2022/01/25 07:48:55;;;;;;;4.80;2.50;;;;;;;-0.59;100.00;100658.22;5036304;28;20099;-79
2022/01/25 07:51:21;;;;;;;6.70;2.60;;;;;;;-0.57;100.00;100653.47;5032249;28;20531;-79
2022/01/25 07:53:46;;;;;;;2.80;2.17;;;;;;;-0.55;100.00;100655.94;5034260;28;20076;-80
2022/01/25 07:56:12;;;;;;;2.72;1.95;;;;;;;-0.55;100.00;100656.78;5045808;28;20037;-83
2022/01/25 07:58:38;;;;;;;7.57;2.47;;;;;;;-0.53;100.00;100660.09;5031712;28;20037;-81
2022/01/25 08:01:04;;;;;;;4.38;2.10;;;;;;;-0.50;100.00;100667.78;5044874;28;20135;-81
2022/01/25 08:03:30;;;;;;;2.17;1.98;;;;;;;-0.47;100.00;100675.44;5053178;28;20126;-80
2022/01/25 08:05:55;;;;;;;2.00;1.60;;;;;;;-0.45;100.00;100667.97;5046277;28;20041;-84
2022/01/25 08:08:21;;;;;;;5.70;2.33;;;;;;;-0.44;100.00;100671.50;5021181;28;20037;-83
2022/01/25 08:10:47;;;;;;;4.28;1.85;;;;;;;-0.43;100.00;100671.28;5034925;28;20032;-85
2022/01/25 08:13:13;;;;;;;2.83;2.00;;;;;;;-0.41;100.00;100681.84;5051538;28;20553;-83
2022/01/25 08:15:39;;;;;;;3.85;1.80;;;;;;;-0.42;100.00;100678.34;5035776;28;20068;-81
2022/01/25 08:18:05;;;;;;;2.63;1.77;;;;;;;-0.45;100.00;100686.84;5048293;28;20035;-86
2022/01/25 08:20:31;;;;;;;2.47;1.65;;;;;;;-0.46;100.00;100687.06;5038588;28;20092;-84
2022/01/25 08:22:56;;;;;;;4.43;1.77;;;;;;;-0.48;100.00;100686.44;5046320;28;20496;-84
2022/01/25 08:25:22;;;;;;;7.80;2.05;;;;;;;-0.48;100.00;100684.56;5029618;28;20193;-83
2022/01/25 08:27:48;;;;;;;3.13;1.80;;;;;;;-0.47;100.00;100683.53;5033955;28;20033;-84
2022/01/25 08:30:14;;;;;;;3.03;1.85;;;;;;;-0.44;100.00;100687.66;5037515;28;20047;-78
2022/01/25 08:32:40;;;;;;;2.65;1.88;;;;;;;-0.44;100.00;100677.72;5044453;28;20443;-87
2022/01/25 08:35:06;;;;;;;2.72;1.60;;;;;;;-0.42;100.00;100678.34;5044865;28;20064;-80
2022/01/25 08:37:32;;;;;;;2.30;1.60;;;;;;;-0.40;100.00;100683.50;5036535;28;20048;-87
2022/01/25 08:39:57;;;;;;;2.88;1.58;;;;;;;-0.40;100.00;100687.03;5038598;28;20067;-85
2022/01/25 08:42:23;;;;;;;2.53;1.55;;;;;;;-0.38;100.00;100687.66;5050124;28;20044;-90
2022/01/25 08:44:49;;;;;;;2.58;1.75;;;;;;;-0.33;100.00;100697.84;5053580;28;20048;-85
2022/01/25 08:47:15;;;;;;;7.40;1.65;;;;;;;-0.29;100.00;100700.94;5038018;28;20041;-82
2022/01/25 08:49:43;;;;;;;1.85;1.63;;;;;;;-0.28;100.00;100705.28;5048563;28;20040;-83
2022/01/25 08:52:09;;;;;;;3.45;1.63;;;;;;;-0.24;100.00;100703.84;5043657;28;20044;-84
2022/01/25 08:54:35;;;;;;;2.65;1.48;;;;;;;-0.25;100.00;100703.00;5052151;28;20085;-88
2022/01/25 08:57:02;;;;;;;2.05;1.20;;;;;;;-0.22;100.00;100712.53;5040289;28;20541;-88
2022/01/25 08:59:28;;;;;;;3.60;1.58;;;;;;;-0.19;100.00;100722.91;5041191;28;20034;-93
2022/01/25 09:01:53;;;;;;;2.22;1.35;;;;;;;-0.16;100.00;100717.94;5049845;28;20056;-91
2022/01/25 09:04:19;;;;;;;1.92;1.27;;;;;;;-0.15;100.00;100721.47;5044620;28;20041;-89
2022/01/25 09:06:45;;;;;;;2.58;1.13;;;;;;;-0.12;100.00;100721.03;5034818;28;20131;-86
2022/01/25 09:09:10;;;;;;;2.03;1.48;;;;;;;-0.10;100.00;100732.44;5069594;28;20073;-86
2022/01/25 09:11:38;;;;;;;2.03;1.23;;;;;;;-0.10;100.00;100727.06;5033029;28;20065;-81
2022/01/25 09:14:04;;;;;;;2.70;1.40;;;;;;;-0.13;100.00;100732.88;5050616;28;20041;-83
2022/01/25 09:16:29;;;;;;;1.17;1.08;;;;;;;-0.18;100.00;100727.25;5039640;28;20064;-89
2022/01/25 09:18:55;;;;;;;3.28;1.50;;;;;;;-0.20;100.00;100726.63;5048223;28;20045;-87
2022/01/25 09:21:21;;;;;;;4.15;1.58;;;;;;;-0.22;100.00;100728.72;5026757;28;20069;-82
2022/01/25 09:23:47;;;;;;;2.58;1.40;;;;;;;-0.24;100.00;100731.63;5039686;28;20061;-87
2022/01/25 09:26:12;;;;;;;3.33;1.50;;;;;;;-0.24;100.00;100730.78;5027283;28;20037;-75
2022/01/25 09:28:38;;;;;;;2.08;1.08;;;;;;;-0.24;100.00;100736.19;5049162;28;20487;-80
2022/01/25 09:31:03;;;;;;;2.33;1.00;;;;;;;-0.26;100.00;100740.97;5034948;28;20056;-77
2022/01/25 09:33:29;;;;;;;2.20;1.00;;;;;;;-0.29;100.00;100744.91;5048328;28;20053;-80
2022/01/25 09:35:56;;;;;;;4.93;1.38;;;;;;;-0.28;100.00;100737.66;5036024;28;20037;-87
2022/01/25 09:38:23;;;;;;;1.48;1.00;;;;;;;-0.26;100.00;100749.88;5039727;28;20492;-88
2022/01/25 09:40:49;;;;;;;2.15;1.40;;;;;;;-0.26;100.00;100746.34;5042897;28;20051;-76
2022/01/25 09:43:15;;;;;;;1.45;1.10;;;;;;;-0.27;100.00;100753.63;5022109;28;20515;-77
2022/01/25 09:45:41;;;;;;;1.05;0.75;;;;;;;-0.26;100.00;100751.75;5031339;28;20044;-77
2022/01/25 09:48:07;;;;;;;2.40;1.00;;;;;;;-0.26;100.00;100762.53;5031409;28;20037;-77
2022/01/25 09:50:34;;;;;;;3.33;1.00;;;;;;;-0.24;100.00;100768.53;5031238;28;20045;-80
2022/01/25 09:53:05;;;;;;;0.95;0.70;;;;;;;-0.26;100.00;100763.38;5021561;28;20131;-76
2022/01/25 09:55:34;;;;;;;1.73;1.02;;;;;;;-0.31;100.00;100765.84;5030990;28;20056;-82
2022/01/25 09:58:01;;;;;;;;;;;;;;;-0.38;100.00;100757.75;5030027;28;20044;-82
2022/01/25 10:00:31;;;;;;;0.35;0.28;;;;;;;-0.48;99.38;100765.44;5031517;28;20288;-84
2022/01/25 10:06:02;;;;;;;1.10;0.60;;;;;;;-0.57;98.72;100771.22;4999386;28;20061;-78
2022/01/25 10:08:35;;;;;;;1.00;0.88;;;;;;;-0.57;98.43;100773.91;5011140;28;20050;-83
2022/01/25 10:11:04;;;;;;;1.77;0.80;;;;;;;-0.57;98.04;100780.13;5028623;28;20041;-80
2022/01/25 10:13:37;;;;;;;1.67;0.90;;;;;;;-0.55;98.33;100785.31;5030452;28;20047;-76
2022/01/25 10:16:17;;;;;;;3.65;1.00;;;;;;;-0.54;98.25;100771.63;5034294;28;20044;-79
2022/01/25 10:18:52;;;;;;;5.43;1.55;;;;;;;-0.53;97.80;100770.59;5034833;28;20053;-79
2022/01/25 10:21:24;;;;;;;2.40;0.98;;;;;;;-0.49;97.65;100779.94;5034932;28;20527;-78
2022/01/25 10:24:25;;;;;;;1.20;0.88;;;;;;;-0.41;97.56;100779.72;5034566;28;20139;-78
2022/01/25 10:26:56;;;;;;;2.25;1.20;;;;;;;-0.36;97.56;100781.81;5022235;28;20496;-79
2022/01/25 10:29:29;;;;;;;5.60;1.17;;;;;;;-0.42;96.85;100788.84;5034365;28;20068;-76
2022/01/25 10:32:10;;;;;;;1.05;0.73;;;;;;;-0.50;96.53;100780.97;5033169;28;20045;-78
2022/01/25 10:34:40;;;;;;;2.92;0.80;;;;;;;-0.61;96.45;100778.88;5034053;28;20156;-79
2022/01/25 10:37:07;;;;;;;2.95;1.00;;;;;;;-0.65;95.91;100783.84;5033526;28;20045;-78
2022/01/25 10:39:36;;;;;;;1.55;0.93;;;;;;;-0.66;96.31;100782.19;5026304;28;20041;-79
2022/01/25 10:42:07;;;;;;;3.58;1.08;;;;;;;-0.68;96.23;100780.75;5056726;28;20107;-79
2022/01/25 10:44:59;;;;;;;2.10;1.13;;;;;;;-0.68;96.59;100772.66;5028218;28;20045;-81
2022/01/25 10:47:40;;;;;;;2.45;0.90;;;;;;;-0.68;96.50;100778.06;5041705;28;20033;-82
2022/01/25 10:50:16;;;;;;;1.98;0.98;;;;;;;-0.71;96.48;100776.56;5034420;28;20216;-80
2022/01/25 10:52:43;;;;;;;2.22;1.08;;;;;;;-0.77;95.94;100779.25;5033528;28;20059;-78
2022/01/25 10:55:09;;;;;;;1.48;0.90;;;;;;;-0.79;96.02;100771.38;5033082;28;20511;-76
2022/01/25 10:57:35;;;;;;;3.58;0.98;;;;;;;-0.81;96.07;100781.53;5033014;28;20049;-74
2022/01/25 11:00:06;;;;;;;4.13;1.10;;;;;;;-0.86;96.29;100783.19;5034238;28;20042;-75
2022/01/25 11:02:33;;;;;;;3.67;1.48;;;;;;;-0.91;95.68;100784.59;5027966;28;20121;-77
2022/01/25 11:05:07;;;;;;;2.85;1.40;;;;;;;-0.93;95.97;100793.91;5030866;28;20561;-76
2022/01/25 11:07:44;;;;;;;2.53;1.20;;;;;;;-0.96;96.29;100802.41;5032127;28;20061;-75
2022/01/25 11:10:20;;;;;;;0.95;0.90;;;;;;;-1.00;95.75;100796.59;5033803;28;20038;-77
2022/01/25 11:13:06;;;;;;;1.90;1.20;;;;;;;-1.04;95.80;100800.75;5033289;28;20413;-77
2022/01/25 11:15:32;;;;;;;1.77;0.90;;;;;;;-1.06;96.03;100802.78;5024615;28;20033;-76
2022/01/25 11:17:58;;;;;;;1.63;1.17;;;;;;;-1.08;95.87;100804.84;5033496;28;20033;-77
2022/01/25 11:20:23;;;;;;;1.88;1.08;;;;;;;-1.08;95.50;100804.00;5034123;28;20156;-77
2022/01/25 11:22:49;;;;;;;3.70;0.80;;;;;;;-1.02;95.23;100805.91;5031207;28;20069;-77
2022/01/25 11:25:18;;;;;;;3.47;0.98;;;;;;;-1.02;95.58;100809.44;5033474;28;20041;-75
2022/01/25 11:27:45;;;;;;;0.88;0.68;;;;;;;-1.00;95.31;100818.16;5048555;28;20041;-75
2022/01/25 11:30:14;;;;;;;2.30;0.75;;;;;;;-0.94;95.10;100827.28;5044538;28;20502;-74
2022/01/25 11:32:42;;;;;;;0.90;0.68;;;;;;;-0.93;95.79;100821.69;5065675;28;20056;-79
2022/01/25 11:35:10;;;;;;;2.03;0.90;;;;;;;-0.93;95.05;100818.16;5032512;28;20037;-81
2022/01/25 11:37:38;;;;;;;1.42;0.90;;;;;;;-0.93;94.93;100829.75;5032508;28;20069;-81
2022/01/25 11:40:25;;;;;;;1.27;0.98;;;;;;;-0.94;94.70;100833.50;5032712;28;20041;-82
2022/01/25 11:42:53;;;;;;;1.85;0.80;;;;;;;-0.89;94.85;100842.81;5014140;28;20045;-80
2022/01/25 11:45:21;;;;;;;1.38;0.70;;;;;;;-0.85;94.90;100857.59;5033656;28;20538;-82
2022/01/25 11:47:48;;;;;;;1.33;0.70;;;;;;;-0.83;95.15;100840.19;5016598;28;20124;-81
2022/01/25 11:50:14;;;;;;;1.85;0.70;;;;;;;-0.79;94.84;100846.81;5043140;28;20044;-81
2022/01/25 11:52:47;;;;;;;1.52;0.90;;;;;;;-0.73;95.00;100845.16;5053773;28;20095;-80
2022/01/25 11:55:16;;;;;;;2.10;0.90;;;;;;;-0.71;95.33;100849.31;5041828;28;20037;-82
2022/01/25 11:57:53;;;;;;;3.30;0.82;;;;;;;-0.70;95.23;100850.16;5031321;28;20041;-80
2022/01/25 12:00:41;;;;;;;1.98;1.10;;;;;;;-0.73;95.21;100845.16;5031109;28;20041;-85
2022/01/25 12:03:31;;;;;;;3.33;0.75;;;;;;;-0.79;95.38;100844.13;5032454;28;20053;-81
2022/01/25 12:06:09;;;;;;;1.27;0.80;;;;;;;-0.82;95.04;100851.78;5031291;28;20049;-82
2022/01/25 12:12:02;;;;;;;2.53;0.70;;;;;;;-0.97;94.81;100847.38;5035232;28;20064;-78
2022/01/25 12:14:33;;;;;;;1.45;0.70;;;;;;;-1.02;95.29;100849.00;5032899;28;20525;-78
2022/01/25 12:17:09;;;;;;;2.45;0.75;;;;;;;-1.07;95.11;100856.84;5020463;28;20047;-80
2022/01/25 12:19:37;;;;;;;1.48;0.98;;;;;;;-1.11;94.95;100856.41;5032386;28;20179;-80
2022/01/25 12:22:06;;;;;;;4.72;1.05;;;;;;;-1.17;94.75;100861.78;5032425;28;20037;-77
2022/01/25 12:24:49;;;;;;;;;;;;;;;-1.26;94.82;100863.78;5032952;28;20645;-85
2022/01/25 12:27:29;;;;;;;2.28;0.88;;;;;;;-1.30;94.69;100865.22;5064966;28;20379;-80
2022/01/25 12:30:27;;;;;;;1.77;0.90;;;;;;;-1.38;94.57;100865.38;5030457;28;20072;-81
2022/01/25 12:33:00;;;;;;;1.27;0.80;;;;;;;-1.40;94.68;100859.34;5034867;28;20041;-81
2022/01/25 12:35:54;;;;;;;3.75;1.30;;;;;;;-1.46;94.24;100871.72;5060306;28;20766;-82
2022/01/25 12:38:22;;;;;;;1.65;0.80;;;;;;;-1.49;94.51;100869.44;5031247;28;20660;-78
2022/01/25 12:40:56;;;;;;;1.88;0.85;;;;;;;-1.50;94.12;100872.34;5031462;28;20045;-81
2022/01/25 12:43:35;;;;;;;2.60;1.10;;;;;;;-1.52;94.49;100875.22;5032979;28;20037;-79
2022/01/25 12:46:05;;;;;;;1.60;1.10;;;;;;;-1.54;94.22;100886.19;5039621;28;20045;-81
2022/01/25 12:48:32;;;;;;;5.68;1.42;;;;;;;-1.58;94.76;100879.50;5034261;28;20037;-82
2022/01/25 12:51:01;;;;;;;2.92;1.23;;;;;;;-1.62;94.65;100878.25;5038456;28;20048;-80
2022/01/25 12:53:29;;;;;;;2.75;0.70;;;;;;;-1.65;94.77;100883.19;5032521;28;20041;-84
2022/01/25 12:55:58;;;;;;;2.65;1.00;;;;;;;-1.69;94.55;100892.69;5011935;28;20501;-82
2022/01/25 12:58:26;;;;;;;2.50;0.93;;;;;;;-1.72;94.10;100896.59;5028479;28;20030;-80
2022/01/25 13:00:53;;;;;;;2.05;0.88;;;;;;;-1.76;93.99;100892.63;5029404;28;20124;-80
2022/01/25 13:03:27;;;;;;;2.45;0.90;;;;;;;-1.79;94.08;100895.69;5028304;28;20048;-80
2022/01/25 13:05:59;;;;;;;2.10;0.82;;;;;;;-1.83;94.52;100900.63;5026537;28;20535;-81
2022/01/25 13:08:49;;;;;;;1.48;0.95;;;;;;;-1.85;94.72;100899.16;5027317;28;20156;-81
2022/01/25 13:12:15;;;;;;;3.17;1.13;;;;;;;-1.89;94.87;100917.56;5013935;28;20040;-79
2022/01/25 13:17:02;;;;;;;1.55;0.90;;;;;;;-1.95;94.69;100907.56;5029237;28;20512;-86
2022/01/25 13:19:37;;;;;;;1.52;1.08;;;;;;;-1.96;94.95;100915.81;5041559;28;20060;-82
2022/01/25 13:22:06;;;;;;;1.48;0.98;;;;;;;-1.98;94.86;100925.94;5031312;28;20464;-87
2022/01/25 13:24:43;;;;;;;3.88;1.20;;;;;;;-1.98;95.02;100920.56;5038707;28;20045;-89
2022/01/25 13:27:15;;;;;;;1.98;0.90;;;;;;;-2.00;94.72;100922.59;5023439;28;20054;-86
2022/01/25 13:32:36;;;;;;;2.65;1.10;;;;;;;-2.07;95.11;100933.31;5034066;28;20454;-84
2022/01/25 13:35:28;;;;;;;1.48;1.17;;;;;;;-2.08;94.48;100945.09;5043597;28;20041;-82
2022/01/25 13:38:38;;;;;;;2.28;1.35;;;;;;;-2.10;95.13;100948.97;5029376;28;20136;-80
2022/01/25 13:46:13;;;;;;;2.87;1.30;;;;;;;-2.12;94.92;100966.13;5034828;28;20049;-80
2022/01/25 13:48:40;;;;;;;6.10;1.17;;;;;;;-2.11;94.92;100969.66;5033696;28;20064;-80